createdAt,value
2023-04-26T00:00:09.620Z,93.70
2023-04-26T00:02:40.147Z,93.90
2023-04-26T00:05:09.943Z,93.70
2023-04-26T00:07:39.238Z,93.50
2023-04-26T00:10:08.397Z,93.70
2023-04-26T00:12:37.583Z,93.80
2023-04-26T00:15:06.478Z,94.10
2023-04-26T00:17:34.746Z,94.60
2023-04-26T00:20:09.127Z,94.50
2023-04-26T00:22:37.407Z,94.70
2023-04-26T00:25:06.383Z,94.60
2023-04-26T00:27:34.564Z,95.00
2023-04-26T00:30:02.961Z,95.40
2023-04-26T00:32:32.269Z,95.40
2023-04-26T00:35:01.227Z,95.40
2023-04-26T00:37:31.225Z,95.70
2023-04-26T00:39:59.254Z,95.30
2023-04-26T00:42:28.941Z,95.30
2023-04-26T00:44:57.786Z,95.40
2023-04-26T00:47:26.880Z,95.70
2023-04-26T00:49:55.223Z,95.70
2023-04-26T00:52:23.629Z,95.70
2023-04-26T00:54:55.546Z,95.40
2023-04-26T00:57:24.079Z,95.10
2023-04-26T00:59:52.591Z,95.20
2023-04-26T01:02:21.089Z,95.20
2023-04-26T01:04:49.481Z,94.90
2023-04-26T01:07:17.853Z,94.70
2023-04-26T01:09:46.239Z,94.90
2023-04-26T01:12:15.792Z,94.70
2023-04-26T01:14:44.183Z,94.60
2023-04-26T01:17:12.343Z,94.80
2023-04-26T01:19:48.430Z,94.60
2023-04-26T01:22:16.541Z,94.60
2023-04-26T01:24:48.978Z,94.80
2023-04-26T01:27:17.548Z,94.80
2023-04-26T01:29:46.522Z,94.80
2023-04-26T01:32:14.830Z,94.80
2023-04-26T01:34:42.968Z,94.70
2023-04-26T01:37:11.050Z,94.90
2023-04-26T01:39:39.299Z,94.90
2023-04-26T01:42:08.969Z,95.00
2023-04-26T01:44:37.405Z,95.00
2023-04-26T01:47:06.254Z,95.10
2023-04-26T01:49:34.443Z,95.20
2023-04-26T01:52:02.552Z,95.30
2023-04-26T01:54:30.922Z,95.30
2023-04-26T01:56:58.857Z,95.30
2023-04-26T01:59:28.850Z,95.30
2023-04-26T02:01:56.931Z,95.50
2023-04-26T02:04:25.182Z,95.50
2023-04-26T02:06:53.269Z,95.50
2023-04-26T02:09:21.502Z,95.70
2023-04-26T02:11:50.712Z,95.90
2023-04-26T02:14:18.961Z,96.10
2023-04-26T02:16:48.415Z,96.30
2023-04-26T02:19:16.523Z,96.10
2023-04-26T02:21:56.141Z,95.90
2023-04-26T02:24:24.541Z,95.90
2023-04-26T02:26:54.384Z,96.00
2023-04-26T02:29:32.708Z,95.90
2023-04-26T02:32:10.038Z,96.00
2023-04-26T02:34:38.033Z,95.90
2023-04-26T02:37:06.211Z,96.10
2023-04-26T02:39:34.290Z,96.10
2023-04-26T02:42:02.753Z,96.10
2023-04-26T02:44:32.144Z,96.00
2023-04-26T02:47:00.219Z,96.40
2023-04-26T02:49:30.552Z,96.30
2023-04-26T02:51:58.562Z,96.40
2023-04-26T02:54:26.829Z,96.90
2023-04-26T02:56:55.310Z,96.70
2023-04-26T02:59:24.508Z,96.70
2023-04-26T03:01:52.846Z,96.80
2023-04-26T03:04:21.364Z,97.00
2023-04-26T03:06:50.741Z,96.90
2023-04-26T03:09:18.908Z,96.60
2023-04-26T03:11:49.576Z,96.50
2023-04-26T03:14:18.450Z,96.50
2023-04-26T03:16:48.368Z,96.80
2023-04-26T03:19:16.637Z,96.50
2023-04-26T03:21:44.562Z,96.60
2023-04-26T03:24:13.914Z,96.90
2023-04-26T03:26:41.981Z,96.70
2023-04-26T03:29:09.943Z,96.60
2023-04-26T03:31:38.144Z,96.80
2023-04-26T03:34:06.276Z,96.80
2023-04-26T03:36:34.801Z,96.70
2023-04-26T03:39:02.809Z,97.30
2023-04-26T03:41:33.548Z,97.50
2023-04-26T03:44:01.791Z,98.00
2023-04-26T03:46:29.797Z,97.50
2023-04-26T03:48:57.926Z,97.70
2023-04-26T03:51:27.572Z,98.20
2023-04-26T03:53:56.214Z,97.80
2023-04-26T03:56:24.343Z,97.40
2023-04-26T03:58:53.852Z,97.70
2023-04-26T04:01:22.249Z,97.40
2023-04-26T04:03:50.509Z,97.40
2023-04-26T04:06:19.439Z,97.70
2023-04-26T04:08:47.576Z,97.80
2023-04-26T04:11:16.804Z,98.00
2023-04-26T04:13:45.004Z,97.70
2023-04-26T04:16:14.811Z,97.70
2023-04-26T04:18:43.120Z,97.90
2023-04-26T04:21:11.311Z,97.50
2023-04-26T04:23:39.410Z,97.90
2023-04-26T04:26:07.618Z,97.40
2023-04-26T04:28:35.636Z,97.50
2023-04-26T04:31:04.043Z,97.70
2023-04-26T04:33:33.361Z,97.80
2023-04-26T04:36:01.531Z,97.70
2023-04-26T04:38:29.989Z,97.60
2023-04-26T04:40:58.113Z,97.70
2023-04-26T04:43:26.522Z,97.60
2023-04-26T04:45:55.599Z,97.80
2023-04-26T04:48:23.798Z,97.80
2023-04-26T04:50:53.368Z,97.80
2023-04-26T04:53:21.522Z,97.70
2023-04-26T04:55:50.870Z,98.30
2023-04-26T04:58:19.189Z,98.10
2023-04-26T05:00:47.343Z,97.60
2023-04-26T05:03:15.640Z,98.20
2023-04-26T05:05:44.048Z,98.00
2023-04-26T05:08:13.727Z,98.00
2023-04-26T05:10:41.739Z,98.20
2023-04-26T05:13:09.723Z,98.20
2023-04-26T05:15:37.835Z,98.30
2023-04-26T05:18:06.069Z,98.40
2023-04-26T05:20:34.176Z,98.30
2023-04-26T05:23:02.133Z,98.60
2023-04-26T05:25:31.553Z,98.00
2023-04-26T05:27:59.537Z,98.10
2023-04-26T05:30:27.619Z,98.20
2023-04-26T05:32:57.029Z,97.40
2023-04-26T05:35:25.372Z,98.00
2023-04-26T05:37:53.454Z,97.60
2023-04-26T05:40:21.431Z,97.30
2023-04-26T05:42:52.018Z,96.20
2023-04-26T05:45:19.958Z,96.10
2023-04-26T05:47:48.474Z,96.40
2023-04-26T05:50:16.765Z,95.20
2023-04-26T05:52:44.845Z,95.90
2023-04-26T05:55:13.800Z,94.50
2023-04-26T05:57:42.069Z,94.70
2023-04-26T06:00:12.996Z,94.70
2023-04-26T06:02:41.265Z,93.80
2023-04-26T06:05:10.192Z,92.90
2023-04-26T06:07:39.364Z,94.10
2023-04-26T06:10:07.985Z,93.10
2023-04-26T06:12:36.112Z,93.60
2023-04-26T06:15:04.123Z,93.90
2023-04-26T06:17:34.097Z,93.50
2023-04-26T06:20:02.419Z,92.20
2023-04-26T06:22:31.055Z,91.70
2023-04-26T06:24:59.139Z,91.20
2023-04-26T06:27:27.158Z,92.10
2023-04-26T06:29:55.221Z,92.10
2023-04-26T06:32:23.251Z,91.80
2023-04-26T06:34:52.658Z,90.70
2023-04-26T06:37:21.457Z,90.60
2023-04-26T06:39:49.513Z,90.40
2023-04-26T06:42:17.686Z,88.90
2023-04-26T06:44:45.658Z,90.10
2023-04-26T06:47:14.446Z,90.20
2023-04-26T06:49:42.518Z,88.60
2023-04-26T06:52:11.924Z,88.40
2023-04-26T06:54:46.006Z,85.80
2023-04-26T06:57:18.146Z,86.80
2023-04-26T06:59:46.290Z,86.80
2023-04-26T07:02:15.737Z,87.10
2023-04-26T07:04:44.592Z,87.60
2023-04-26T07:07:15.426Z,89.40
2023-04-26T07:09:43.745Z,83.50
2023-04-26T07:12:12.698Z,87.60
2023-04-26T07:14:43.185Z,87.40
2023-04-26T07:17:11.419Z,90.60
2023-04-26T07:19:39.425Z,88.70
2023-04-26T07:22:07.673Z,86.30
2023-04-26T07:24:37.172Z,85.80
2023-04-26T07:27:05.320Z,84.40
2023-04-26T07:29:33.390Z,84.80
2023-04-26T07:32:01.382Z,87.00
2023-04-26T07:34:29.387Z,89.80
2023-04-26T07:36:57.432Z,90.70
2023-04-26T07:39:25.454Z,90.60
2023-04-26T07:41:54.813Z,89.20
2023-04-26T07:44:23.137Z,86.40
2023-04-26T07:46:51.062Z,85.70
2023-04-26T07:49:19.327Z,88.30
2023-04-26T07:51:48.353Z,89.10
2023-04-26T07:54:16.334Z,87.70
2023-04-26T07:56:44.340Z,88.60
2023-04-26T07:59:13.763Z,88.10
2023-04-26T08:01:42.289Z,88.50
2023-04-26T08:04:11.164Z,89.00
2023-04-26T08:06:39.476Z,89.90
2023-04-26T08:09:07.496Z,90.20
2023-04-26T08:11:35.730Z,90.40
2023-04-26T08:14:03.803Z,90.50
2023-04-26T08:16:33.332Z,91.80
2023-04-26T08:19:03.476Z,91.50
2023-04-26T08:21:32.569Z,91.50
2023-04-26T08:24:00.816Z,90.80
2023-04-26T08:26:28.866Z,90.90
2023-04-26T08:28:57.214Z,91.40
2023-04-26T08:31:25.874Z,90.90
2023-04-26T08:33:55.425Z,90.40
2023-04-26T08:36:23.594Z,92.10
2023-04-26T08:38:51.617Z,91.90
2023-04-26T08:41:24.208Z,92.10
2023-04-26T08:43:53.326Z,92.40
2023-04-26T08:46:21.949Z,91.90
2023-04-26T08:49:02.176Z,92.10
2023-04-26T08:51:33.193Z,91.20
2023-04-26T08:54:04.671Z,91.70
2023-04-26T08:56:35.303Z,91.70
2023-04-26T08:59:04.108Z,89.80
2023-04-26T09:01:34.262Z,89.20
2023-04-26T09:04:04.059Z,87.80
2023-04-26T09:06:35.142Z,89.40
2023-04-26T09:09:07.897Z,89.60
2023-04-26T09:11:55.300Z,88.00
2023-04-26T09:14:23.424Z,84.40
2023-04-26T09:16:52.072Z,80.20
2023-04-26T09:19:37.020Z,85.50
2023-04-26T09:22:06.380Z,82.50
2023-04-26T09:24:49.079Z,81.80
2023-04-26T09:27:17.530Z,82.80
2023-04-26T09:30:00.455Z,84.70
2023-04-26T09:32:29.295Z,85.30
2023-04-26T09:34:58.908Z,85.20
2023-04-26T09:37:27.068Z,86.80
2023-04-26T09:39:55.439Z,89.50
2023-04-26T09:42:23.619Z,82.10
2023-04-26T09:44:54.128Z,82.60
2023-04-26T09:47:23.783Z,80.50
2023-04-26T09:49:52.872Z,80.90
2023-04-26T09:52:22.455Z,83.70
2023-04-26T09:54:53.089Z,87.20
2023-04-26T09:57:23.679Z,88.90
2023-04-26T09:59:56.249Z,87.10
2023-04-26T10:02:26.260Z,89.40
2023-04-26T10:04:56.596Z,89.30
2023-04-26T10:07:26.989Z,88.50
2023-04-26T10:09:56.069Z,89.70
2023-04-26T10:12:24.082Z,89.00
2023-04-26T10:14:52.182Z,85.60
2023-04-26T10:17:21.191Z,84.20
2023-04-26T10:19:52.018Z,81.20
2023-04-26T10:22:25.279Z,81.20
2023-04-26T10:24:56.056Z,83.40
2023-04-26T10:27:50.230Z,86.60
2023-04-26T10:30:20.326Z,90.00
2023-04-26T10:33:19.175Z,90.20
2023-04-26T10:36:06.876Z,88.80
2023-04-26T10:38:36.397Z,87.00
2023-04-26T10:41:34.489Z,86.00
2023-04-26T10:44:39.398Z,88.60
2023-04-26T10:47:08.951Z,86.10
2023-04-26T10:49:48.387Z,88.30
2023-04-26T10:52:17.537Z,84.80
2023-04-26T10:54:50.606Z,84.50
2023-04-26T10:57:21.484Z,81.30
2023-04-26T11:00:18.661Z,78.50
2023-04-26T11:02:49.181Z,78.20
2023-04-26T11:05:51.759Z,76.10
2023-04-26T11:08:20.952Z,77.40
2023-04-26T11:10:53.879Z,79.50
2023-04-26T11:13:23.307Z,79.20
2023-04-26T11:15:55.024Z,76.70
2023-04-26T11:18:23.760Z,74.80
2023-04-26T11:20:51.873Z,76.10
2023-04-26T11:23:21.171Z,78.80
2023-04-26T11:25:49.626Z,79.10
2023-04-26T11:28:19.455Z,79.60
2023-04-26T11:30:50.314Z,73.60
2023-04-26T11:33:19.944Z,73.60
2023-04-26T11:35:49.336Z,76.10
2023-04-26T11:38:18.028Z,77.10
2023-04-26T11:40:46.526Z,72.40
2023-04-26T11:43:15.684Z,72.70
2023-04-26T11:45:44.038Z,73.40
2023-04-26T11:48:14.724Z,76.10
2023-04-26T11:50:43.326Z,75.50
2023-04-26T11:53:12.150Z,73.10
2023-04-26T11:55:41.836Z,74.00
2023-04-26T11:58:15.025Z,78.50
2023-04-26T12:00:59.548Z,72.00
2023-04-26T12:03:33.727Z,73.80
2023-04-26T12:06:02.369Z,75.80
2023-04-26T12:08:31.026Z,71.90
2023-04-26T12:11:01.887Z,73.80
2023-04-26T12:13:30.729Z,78.10
2023-04-26T12:15:58.991Z,70.50
2023-04-26T12:18:33.726Z,72.70
2023-04-26T12:21:02.226Z,71.50
2023-04-26T12:23:39.190Z,74.40
2023-04-26T12:26:10.721Z,74.40
2023-04-26T12:28:38.945Z,70.40
2023-04-26T12:31:07.669Z,71.90
2023-04-26T12:33:37.496Z,71.50
2023-04-26T12:36:10.221Z,74.60
2023-04-26T12:38:38.497Z,73.60
2023-04-26T12:41:07.089Z,73.80
2023-04-26T12:43:35.807Z,76.30
2023-04-26T12:46:04.238Z,72.60
2023-04-26T12:48:32.515Z,72.90
2023-04-26T12:51:02.324Z,73.70
2023-04-26T12:53:30.367Z,70.60
2023-04-26T12:55:58.474Z,72.10
2023-04-26T12:58:26.605Z,75.00
2023-04-26T13:00:54.616Z,70.70
2023-04-26T13:03:22.998Z,68.50
2023-04-26T13:05:51.693Z,69.90
2023-04-26T13:08:22.532Z,66.80
2023-04-26T13:10:51.266Z,66.80
2023-04-26T13:13:21.946Z,70.10
2023-04-26T13:15:52.139Z,70.60
2023-04-26T13:18:20.181Z,71.40
2023-04-26T13:20:48.490Z,71.20
2023-04-26T13:23:16.588Z,72.30
2023-04-26T13:25:45.888Z,73.40
2023-04-26T13:28:14.343Z,69.40
2023-04-26T13:30:42.902Z,71.30
2023-04-26T13:33:11.032Z,69.20
2023-04-26T13:35:39.180Z,69.80
2023-04-26T13:38:07.322Z,70.70
2023-04-26T13:40:35.612Z,73.30
2023-04-26T13:43:05.125Z,73.10
2023-04-26T13:45:34.953Z,71.50
2023-04-26T13:48:03.112Z,69.50
2023-04-26T13:50:31.228Z,69.30
2023-04-26T13:52:59.235Z,67.00
2023-04-26T13:55:27.417Z,66.70
2023-04-26T13:57:55.986Z,67.10
2023-04-26T14:00:25.652Z,68.50
2023-04-26T14:02:53.823Z,66.70
2023-04-26T14:05:22.157Z,69.70
2023-04-26T14:07:50.259Z,69.90
2023-04-26T14:10:18.337Z,69.80
2023-04-26T14:12:46.476Z,67.90
2023-04-26T14:15:15.094Z,68.60
2023-04-26T14:17:46.762Z,69.20
2023-04-26T14:20:14.941Z,69.80
2023-04-26T14:22:43.368Z,69.90
2023-04-26T14:25:11.562Z,72.00
2023-04-26T14:27:40.362Z,70.10
2023-04-26T14:30:09.363Z,69.00
2023-04-26T14:32:37.416Z,70.30
2023-04-26T14:35:07.864Z,72.70
2023-04-26T14:37:35.850Z,72.30
2023-04-26T14:40:04.730Z,72.30
2023-04-26T14:42:33.053Z,72.90
2023-04-26T14:45:01.150Z,70.70
2023-04-26T14:47:29.319Z,71.00
2023-04-26T14:49:58.656Z,73.00
2023-04-26T14:52:29.102Z,71.00
2023-04-26T14:54:57.240Z,73.70
2023-04-26T14:57:26.361Z,72.40
2023-04-26T14:59:54.813Z,75.40
2023-04-26T15:02:23.073Z,72.70
2023-04-26T15:04:51.272Z,73.40
2023-04-26T15:07:31.340Z,70.70
2023-04-26T15:10:02.467Z,70.30
2023-04-26T15:12:30.446Z,71.60
2023-04-26T15:14:58.640Z,72.80
2023-04-26T15:17:27.294Z,71.20
2023-04-26T15:19:56.348Z,71.30
2023-04-26T15:22:24.338Z,71.80
2023-04-26T15:24:52.513Z,72.40
2023-04-26T15:27:22.619Z,72.20
2023-04-26T15:29:50.855Z,73.80
2023-04-26T15:32:18.800Z,73.80
2023-04-26T15:34:47.664Z,73.10
2023-04-26T15:37:15.669Z,71.50
2023-04-26T15:39:43.719Z,70.50
2023-04-26T15:42:12.028Z,71.90
2023-04-26T15:44:42.027Z,72.80
2023-04-26T15:47:09.978Z,72.70
2023-04-26T15:49:38.227Z,72.10
2023-04-26T15:52:06.240Z,73.40
2023-04-26T15:54:34.657Z,74.50
2023-04-26T15:57:04.066Z,72.20
2023-04-26T15:59:33.342Z,72.10
2023-04-26T16:02:02.962Z,70.90
2023-04-26T16:04:31.189Z,71.70
2023-04-26T16:06:59.420Z,72.60
2023-04-26T16:09:27.476Z,70.90
2023-04-26T16:11:55.480Z,72.80
2023-04-26T16:14:23.773Z,68.50
2023-04-26T16:16:51.842Z,70.40
2023-04-26T16:19:21.966Z,70.80
2023-04-26T16:21:50.071Z,72.00
2023-04-26T16:24:18.294Z,72.00
2023-04-26T16:26:46.422Z,71.30
2023-04-26T16:29:14.775Z,69.30
2023-04-26T16:31:43.057Z,70.60
2023-04-26T16:34:11.264Z,70.00
2023-04-26T16:36:40.656Z,72.20
2023-04-26T16:39:08.708Z,71.50
2023-04-26T16:41:36.859Z,71.70
2023-04-26T16:44:05.118Z,73.10
2023-04-26T16:46:33.179Z,72.30
2023-04-26T16:49:01.155Z,73.30
2023-04-26T16:51:29.404Z,71.80
2023-04-26T16:53:58.731Z,72.40
2023-04-26T16:56:26.717Z,74.40
2023-04-26T16:58:54.749Z,76.50
2023-04-26T17:01:22.808Z,75.50
2023-04-26T17:03:52.026Z,75.90
2023-04-26T17:06:20.453Z,75.50
2023-04-26T17:08:48.758Z,74.70
2023-04-26T17:11:18.740Z,74.00
2023-04-26T17:13:46.693Z,73.70
2023-04-26T17:16:14.865Z,74.30
2023-04-26T17:18:42.855Z,73.70
2023-04-26T17:21:11.066Z,74.80
2023-04-26T17:23:39.135Z,74.20
2023-04-26T17:26:07.108Z,74.40
2023-04-26T17:28:39.090Z,75.50
2023-04-26T17:31:07.240Z,75.90
2023-04-26T17:33:36.822Z,76.20
2023-04-26T17:36:05.410Z,74.50
2023-04-26T17:38:33.455Z,76.10
2023-04-26T17:41:01.613Z,75.70
2023-04-26T17:43:29.951Z,76.70
2023-04-26T17:45:59.418Z,76.70
2023-04-26T17:48:29.123Z,77.30
2023-04-26T17:50:57.340Z,78.50
2023-04-26T17:53:26.393Z,78.80
2023-04-26T17:55:54.546Z,79.60
2023-04-26T17:58:22.532Z,80.30
2023-04-26T18:00:50.619Z,81.30
2023-04-26T18:03:20.649Z,80.90
2023-04-26T18:05:49.143Z,81.90
2023-04-26T18:08:17.092Z,81.50
2023-04-26T18:10:47.861Z,81.70
2023-04-26T18:13:17.187Z,82.20
2023-04-26T18:15:45.425Z,81.80
2023-04-26T18:18:13.563Z,81.80
2023-04-26T18:20:43.250Z,81.80
2023-04-26T18:23:11.311Z,82.10
2023-04-26T18:25:39.372Z,82.20
2023-04-26T18:28:08.696Z,83.20
2023-04-26T18:30:36.669Z,83.70
2023-04-26T18:33:05.070Z,84.00
2023-04-26T18:35:33.124Z,84.30
2023-04-26T18:38:02.502Z,84.70
2023-04-26T18:40:30.540Z,85.10
2023-04-26T18:42:58.805Z,85.40
2023-04-26T18:45:26.991Z,85.20
2023-04-26T18:47:55.527Z,85.40
2023-04-26T18:50:23.650Z,85.10
2023-04-26T18:52:51.773Z,85.10
2023-04-26T18:55:21.214Z,84.70
2023-04-26T18:57:49.203Z,84.90
2023-04-26T19:00:17.580Z,86.10
2023-04-26T19:02:45.693Z,88.10
2023-04-26T19:05:14.140Z,89.60
2023-04-26T19:07:42.400Z,89.30
2023-04-26T19:10:11.430Z,88.80
2023-04-26T19:12:40.748Z,90.30
2023-04-26T19:15:09.516Z,90.10
2023-04-26T19:17:37.792Z,89.30
2023-04-26T19:20:12.314Z,88.60
2023-04-26T19:22:41.732Z,88.50
2023-04-26T19:25:10.613Z,88.70
2023-04-26T19:27:39.950Z,88.70
2023-04-26T19:30:09.560Z,89.30
2023-04-26T19:32:37.686Z,89.70
2023-04-26T19:35:07.356Z,90.20
2023-04-26T19:37:35.418Z,90.00
2023-04-26T19:40:03.961Z,89.30
2023-04-26T19:42:32.013Z,89.60
2023-04-26T19:45:01.365Z,89.30
2023-04-26T19:47:29.348Z,89.50
2023-04-26T19:49:59.347Z,89.80
2023-04-26T19:52:27.729Z,89.10
2023-04-26T19:54:55.788Z,89.80
2023-04-26T19:57:23.731Z,90.00
2023-04-26T19:59:51.728Z,90.20
2023-04-26T20:02:21.158Z,90.60
2023-04-26T20:04:49.181Z,90.70
2023-04-26T20:07:17.132Z,91.10
2023-04-26T20:09:45.117Z,91.40
2023-04-26T20:12:13.156Z,91.20
2023-04-26T20:14:41.539Z,91.30
2023-04-26T20:17:09.652Z,91.50
2023-04-26T20:19:39.325Z,91.90
2023-04-26T20:22:07.617Z,92.10
2023-04-26T20:24:35.682Z,92.10
2023-04-26T20:27:03.893Z,91.70
2023-04-26T20:29:31.857Z,91.80
2023-04-26T20:31:59.965Z,91.90
2023-04-26T20:34:27.972Z,92.70
2023-04-26T20:36:57.625Z,92.90
2023-04-26T20:39:28.168Z,92.70
2023-04-26T20:41:56.217Z,93.20
2023-04-26T20:44:24.209Z,93.30
2023-04-26T20:46:52.201Z,93.30
2023-04-26T20:49:20.748Z,93.30
2023-04-26T20:51:48.747Z,93.20
2023-04-26T20:54:18.075Z,93.30
2023-04-26T20:56:46.491Z,93.60
2023-04-26T20:59:14.524Z,93.60
2023-04-26T21:01:42.517Z,93.60
2023-04-26T21:04:10.748Z,94.10
2023-04-26T21:06:39.123Z,94.20
2023-04-26T21:09:07.434Z,94.00
2023-04-26T21:11:36.969Z,94.00
2023-04-26T21:14:05.347Z,94.30
2023-04-26T21:16:33.313Z,94.40
2023-04-26T21:19:01.601Z,94.50
2023-04-26T21:21:29.666Z,94.50
2023-04-26T21:23:57.655Z,94.40
2023-04-26T21:26:25.723Z,94.40
2023-04-26T21:28:55.140Z,94.40
2023-04-26T21:31:23.422Z,94.40
2023-04-26T21:33:51.658Z,94.10
2023-04-26T21:36:19.640Z,93.80
2023-04-26T21:38:47.665Z,94.00
2023-04-26T21:41:15.746Z,94.10
2023-04-26T21:43:43.715Z,94.10
2023-04-26T21:46:13.058Z,94.00
2023-04-26T21:48:41.036Z,94.00
2023-04-26T21:51:09.050Z,94.30
2023-04-26T21:53:36.981Z,94.20
2023-04-26T21:56:06.250Z,94.00
2023-04-26T21:58:34.231Z,94.00
2023-04-26T22:01:09.259Z,94.10
2023-04-26T22:03:39.471Z,94.00
2023-04-26T22:06:09.207Z,94.50
2023-04-26T22:08:37.266Z,95.10
2023-04-26T22:11:05.503Z,94.80
2023-04-26T22:13:33.465Z,95.10
2023-04-26T22:16:01.534Z,94.40
2023-04-26T22:18:29.533Z,94.60
2023-04-26T22:20:58.894Z,94.70
2023-04-26T22:23:26.866Z,94.70
2023-04-26T22:25:54.831Z,95.10
2023-04-26T22:28:22.784Z,94.70
2023-04-26T22:30:50.816Z,94.90
2023-04-26T22:33:18.784Z,95.20
2023-04-26T22:35:46.834Z,95.20
2023-04-26T22:38:16.175Z,95.30
2023-04-26T22:40:44.130Z,95.40
2023-04-26T22:43:12.068Z,95.30
2023-04-26T22:45:40.127Z,95.20
2023-04-26T22:48:08.197Z,95.70
2023-04-26T22:50:36.189Z,96.10
2023-04-26T22:53:04.212Z,96.20
2023-04-26T22:55:33.593Z,96.10
2023-04-26T22:58:01.514Z,95.70
2023-04-26T23:00:29.456Z,96.10
2023-04-26T23:02:57.800Z,95.70
2023-04-26T23:05:25.972Z,96.00
2023-04-26T23:07:55.035Z,95.90
2023-04-26T23:10:23.443Z,95.70
2023-04-26T23:12:52.938Z,95.70
2023-04-26T23:15:21.051Z,95.80
2023-04-26T23:17:49.300Z,95.70
2023-04-26T23:20:17.616Z,95.90
2023-04-26T23:22:45.676Z,96.00
2023-04-26T23:25:13.709Z,95.70
2023-04-26T23:27:42.013Z,95.70
2023-04-26T23:30:13.765Z,95.60
2023-04-26T23:32:41.907Z,95.90
2023-04-26T23:35:10.662Z,95.70
2023-04-26T23:37:38.614Z,95.80
2023-04-26T23:40:09.211Z,95.80
2023-04-26T23:42:37.568Z,95.70
2023-04-26T23:45:07.710Z,95.60
2023-04-26T23:47:37.311Z,95.60
2023-04-26T23:50:06.011Z,95.80
2023-04-26T23:52:34.100Z,95.40
2023-04-26T23:55:02.019Z,96.00
2023-04-26T23:57:30.077Z,96.20
2023-04-26T23:59:58.012Z,95.90
